Vries, Netherlands
Current Conditions -  °F | °C
As of 2:25 PM on Saturday 25 Oct 2014 (Local Time) from EHGG Reporting Station
Broken Clouds Broken Clouds  
Wind Chill: 59°   Ceiling: 2700
Heat Index: 59°   Visibility: 6mi
Dew Point: 48°   Wind: 10mph
Humidity: 67%   Direction: 260°W
Pressure: 30.03"   Gusts: NA
Location:  53.07°N, 6.58°E
Report Text: EHGG 251225Z AUTO 26009KT 210V300 9999 SCT024 BKN027 BKN03615/09 Q1017 NOSIG
Loading
Personal Weather Stations






























Interactive Weather Map
Tropical Storm Tracking
New forecast layout! Learn more

10-Day Weather Forecast

Advertisements
Track Severe Weather on mobile